Terminal Aerodrome Forecast
Issued by NWS

Home | Current Version | Previous Version | Text Only | Print | Product List | Glossary On
Versions: 1 2 3 4 5 6 7 8 9 10 11 12 13
000
FTUS44 KSJT 191900 AAA
TAFJCT
TAF AMD
KJCT 191900Z 1919/2018 18010G18KT P6SM SCT030 BKN040
     FM200100 VRB04KT P6SM VCTS BKN030CB
      TEMPO 2001/2005 3SM TSRA OVC010CB
     FM200800 VRB04KT P6SM BKN050=

USA.gov is the U.S. government's official web portal to all federal, state and local government web resources and services.